Time;durP1;ratioP1;P1;durP2;ratioP2;P2;SDS_P1;SDS_P2;PMS_P1;PMS_P2;Temp;Humidity;BMP_temperature;BMP_pressure;BME280_temperature;BME280_humidity;BME280_pressure;Samples;Min_cycle;Max_cycle;Signal;HPM_P1;HPM_P2
2023/12/16 00:00:12;;;;;;;18.80;4.20;;;;;;;;;;4989712;28;20470;-87
2023/12/16 00:02:38;;;;;;;17.90;4.57;;;;;;;;;;4996750;28;20030;-87
2023/12/16 00:05:04;;;;;;;19.65;4.30;;;;;;;;;;4994059;28;20551;-87
2023/12/16 00:07:29;;;;;;;11.13;4.27;;;;;;;;;;4994227;28;20022;-88
2023/12/16 00:09:54;;;;;;;17.57;4.67;;;;;;;;;;5007812;28;20052;-87
2023/12/16 00:12:19;;;;;;;16.35;4.43;;;;;;;;;;5012321;28;20453;-87
2023/12/16 00:14:45;;;;;;;12.67;4.40;;;;;;;;;;5007112;28;20071;-87
2023/12/16 00:17:10;;;;;;;18.23;3.90;;;;;;;;;;5012924;28;20029;-88
2023/12/16 00:19:35;;;;;;;14.30;4.00;;;;;;;;;;5011173;28;20025;-87
2023/12/16 00:22:00;;;;;;;11.60;3.60;;;;;;;;;;4995560;28;20026;-87
2023/12/16 00:24:25;;;;;;;21.70;4.00;;;;;;;;;;5001772;28;20446;-88
2023/12/16 00:26:51;;;;;;;16.67;4.00;;;;;;;;;;4993457;28;20102;-87
2023/12/16 00:29:16;;;;;;;21.53;4.20;;;;;;;;;;5006568;28;20022;-87
2023/12/16 00:31:41;;;;;;;14.13;3.27;;;;;;;;;;5007230;28;20034;-89
2023/12/16 00:34:07;;;;;;;14.13;3.87;;;;;;;;;;5008150;28;20014;-89
2023/12/16 00:36:32;;;;;;;14.93;4.00;;;;;;;;;;4992847;28;20018;-87
2023/12/16 00:38:58;;;;;;;15.43;4.03;;;;;;;;;;4993451;28;20014;-89
2023/12/16 00:41:23;;;;;;;14.20;3.10;;;;;;;;;;4992720;28;20458;-89
2023/12/16 00:43:48;;;;;;;14.97;3.67;;;;;;;;;;4975576;28;20053;-87
2023/12/16 00:46:13;;;;;;;12.80;3.63;;;;;;;;;;5011168;28;20109;-87
2023/12/16 00:48:38;;;;;;;13.40;3.27;;;;;;;;;;4993783;28;20033;-86
2023/12/16 00:51:04;;;;;;;17.00;3.93;;;;;;;;;;4992878;28;20402;-87
2023/12/16 00:53:29;;;;;;;16.13;3.77;;;;;;;;;;4993492;28;20391;-88
2023/12/16 00:55:54;;;;;;;12.87;3.40;;;;;;;;;;4996442;28;20072;-87
2023/12/16 00:58:19;;;;;;;17.15;3.72;;;;;;;;;;5013141;28;20084;-88
2023/12/16 01:00:45;;;;;;;11.47;3.30;;;;;;;;;;5008030;28;20488;-88
2023/12/16 01:03:10;;;;;;;16.77;3.93;;;;;;;;;;5003872;28;20022;-89
2023/12/16 01:05:37;;;;;;;16.43;4.03;;;;;;;;;;5011759;28;20120;-89
2023/12/16 01:08:03;;;;;;;14.13;3.42;;;;;;;;;;5007834;28;20426;-88
2023/12/16 01:10:28;;;;;;;18.17;3.60;;;;;;;;;;4992058;28;20041;-88
2023/12/16 01:12:53;;;;;;;12.57;3.37;;;;;;;;;;4992154;28;20480;-89
2023/12/16 01:15:18;;;;;;;19.27;4.53;;;;;;;;;;4992525;28;20034;-86
2023/12/16 01:17:44;;;;;;;14.60;3.73;;;;;;;;;;4998184;28;20489;-89
2023/12/16 01:20:09;;;;;;;17.40;3.50;;;;;;;;;;5006250;28;20031;-88
2023/12/16 01:22:35;;;;;;;12.05;3.45;;;;;;;;;;4992379;28;20054;-87
2023/12/16 01:25:00;;;;;;;13.57;3.73;;;;;;;;;;4992060;28;20026;-86
2023/12/16 01:27:25;;;;;;;13.93;4.07;;;;;;;;;;4998850;28;20034;-87
2023/12/16 01:29:50;;;;;;;17.57;3.80;;;;;;;;;;5011250;28;20069;-86
2023/12/16 01:32:15;;;;;;;16.97;3.83;;;;;;;;;;5002976;28;20030;-87
2023/12/16 01:34:41;;;;;;;15.23;3.30;;;;;;;;;;5004484;28;20677;-88
2023/12/16 01:37:06;;;;;;;12.07;3.53;;;;;;;;;;4999381;28;20402;-90
2023/12/16 01:39:31;;;;;;;15.97;3.30;;;;;;;;;;4992154;28;20029;-88
2023/12/16 01:41:56;;;;;;;12.83;2.73;;;;;;;;;;4991856;28;20022;-88
2023/12/16 01:44:22;;;;;;;12.33;3.30;;;;;;;;;;5011064;28;20021;-89
2023/12/16 01:46:47;;;;;;;13.93;3.37;;;;;;;;;;5012210;28;20047;-88
2023/12/16 01:49:12;;;;;;;10.27;3.03;;;;;;;;;;5011594;28;20030;-87
2023/12/16 01:51:37;;;;;;;12.88;3.17;;;;;;;;;;5003992;28;20029;-87
2023/12/16 01:54:04;;;;;;;15.30;2.67;;;;;;;;;;5012323;28;20025;-88
2023/12/16 01:56:30;;;;;;;13.18;3.35;;;;;;;;;;5015679;28;20022;-88
2023/12/16 01:58:55;;;;;;;11.80;3.10;;;;;;;;;;5004425;28;20113;-87
2023/12/16 02:01:21;;;;;;;13.70;3.57;;;;;;;;;;4992749;28;20478;-88
2023/12/16 02:03:46;;;;;;;18.15;2.90;;;;;;;;;;5010354;28;20018;-87
2023/12/16 02:06:11;;;;;;;12.03;2.87;;;;;;;;;;5008320;28;20125;-88
2023/12/16 02:08:37;;;;;;;12.23;2.83;;;;;;;;;;4995909;28;20041;-86
2023/12/16 02:11:02;;;;;;;11.47;2.60;;;;;;;;;;4994211;28;20030;-86
2023/12/16 02:13:27;;;;;;;12.25;2.97;;;;;;;;;;5006969;28;20364;-86
2023/12/16 02:15:52;;;;;;;15.23;3.10;;;;;;;;;;4974342;28;20027;-88
2023/12/16 02:18:18;;;;;;;11.97;3.10;;;;;;;;;;4995777;28;20026;-89
2023/12/16 02:20:43;;;;;;;11.43;3.13;;;;;;;;;;5002075;28;20017;-87
2023/12/16 02:23:17;;;;;;;13.87;3.30;;;;;;;;;;5011247;28;20038;-87
2023/12/16 02:25:43;;;;;;;15.00;3.05;;;;;;;;;;5008802;28;20028;-87
2023/12/16 02:28:09;;;;;;;15.13;2.70;;;;;;;;;;5009689;28;20100;-89
2023/12/16 02:30:34;;;;;;;17.30;3.67;;;;;;;;;;4990578;28;20117;-86
2023/12/16 02:32:59;;;;;;;12.83;2.80;;;;;;;;;;5004611;28;20375;-86
2023/12/16 02:35:24;;;;;;;15.23;3.50;;;;;;;;;;5010720;28;20040;-87
2023/12/16 02:37:50;;;;;;;15.00;3.70;;;;;;;;;;5010718;28;20053;-87
2023/12/16 02:40:15;;;;;;;20.03;3.20;;;;;;;;;;5001261;28;20504;-87
2023/12/16 02:42:40;;;;;;;13.87;2.77;;;;;;;;;;4993020;28;20034;-87
2023/12/16 02:45:05;;;;;;;13.67;3.23;;;;;;;;;;4990862;28;20450;-87
2023/12/16 02:47:31;;;;;;;12.77;3.50;;;;;;;;;;4991742;28;20030;-87
2023/12/16 02:49:56;;;;;;;11.10;2.90;;;;;;;;;;5004650;28;20029;-87
2023/12/16 02:52:21;;;;;;;11.57;2.53;;;;;;;;;;4983191;28;20068;-87
2023/12/16 02:54:46;;;;;;;13.57;2.80;;;;;;;;;;4994473;28;20108;-87
2023/12/16 02:57:11;;;;;;;18.70;3.50;;;;;;;;;;4993387;28;20391;-88
2023/12/16 02:59:37;;;;;;;16.87;2.90;;;;;;;;;;4990957;28;20023;-88
2023/12/16 03:02:02;;;;;;;15.37;2.80;;;;;;;;;;4999404;28;20024;-87
2023/12/16 03:04:27;;;;;;;12.20;2.78;;;;;;;;;;5011611;28;20034;-88
2023/12/16 03:06:52;;;;;;;13.33;3.20;;;;;;;;;;5012429;28;20026;-88
2023/12/16 03:09:17;;;;;;;11.03;2.87;;;;;;;;;;5008206;28;20457;-87
2023/12/16 03:11:43;;;;;;;10.07;2.87;;;;;;;;;;4998021;28;20391;-88
2023/12/16 03:14:08;;;;;;;16.37;3.83;;;;;;;;;;4993790;28;20014;-87
2023/12/16 03:16:33;;;;;;;10.30;2.73;;;;;;;;;;5002711;28;20027;-87
2023/12/16 03:18:59;;;;;;;19.80;3.47;;;;;;;;;;4992206;28;20025;-86
2023/12/16 03:21:24;;;;;;;9.10;3.03;;;;;;;;;;4994205;28;20018;-86
2023/12/16 03:23:49;;;;;;;20.83;3.00;;;;;;;;;;5011346;28;20398;-86
2023/12/16 03:26:14;;;;;;;15.37;2.97;;;;;;;;;;4995795;28;20034;-87
2023/12/16 03:28:39;;;;;;;13.17;3.43;;;;;;;;;;4999129;28;20023;-87
2023/12/16 03:31:05;;;;;;;12.97;3.47;;;;;;;;;;5010596;28;20394;-87
2023/12/16 03:33:30;;;;;;;16.60;3.30;;;;;;;;;;5011505;28;20128;-87
2023/12/16 03:35:55;;;;;;;14.67;3.33;;;;;;;;;;5012284;28;20284;-87
2023/12/16 03:38:21;;;;;;;20.63;3.57;;;;;;;;;;5020818;28;20076;-87
2023/12/16 03:40:46;;;;;;;14.03;3.27;;;;;;;;;;5015606;28;20101;-86
2023/12/16 03:43:11;;;;;;;11.63;3.30;;;;;;;;;;4996143;28;20029;-87
2023/12/16 03:45:37;;;;;;;15.70;3.60;;;;;;;;;;4996603;28;20018;-87
2023/12/16 03:48:02;;;;;;;11.50;3.23;;;;;;;;;;5009696;28;20037;-86
2023/12/16 03:50:27;;;;;;;13.03;3.80;;;;;;;;;;4995687;28;20022;-87
2023/12/16 03:52:52;;;;;;;11.53;2.83;;;;;;;;;;5014221;28;20025;-87
2023/12/16 03:55:17;;;;;;;11.93;3.23;;;;;;;;;;5012223;28;20029;-87
2023/12/16 03:57:43;;;;;;;16.90;4.20;;;;;;;;;;5009364;28;20030;-86
2023/12/16 04:00:08;;;;;;;15.50;3.05;;;;;;;;;;4976870;28;20037;-87
2023/12/16 04:02:33;;;;;;;12.23;2.90;;;;;;;;;;4995591;28;20023;-87
2023/12/16 04:04:58;;;;;;;18.97;3.40;;;;;;;;;;4997006;28;20046;-87
2023/12/16 04:07:24;;;;;;;13.00;3.60;;;;;;;;;;4996585;28;20014;-86
2023/12/16 04:09:49;;;;;;;12.10;3.53;;;;;;;;;;5006572;28;20100;-87
2023/12/16 04:12:14;;;;;;;10.60;3.30;;;;;;;;;;5008867;28;20042;-87
2023/12/16 04:14:39;;;;;;;17.03;3.37;;;;;;;;;;5002748;28;20069;-86
2023/12/16 04:17:05;;;;;;;15.97;3.03;;;;;;;;;;4993770;28;20406;-87
2023/12/16 04:19:30;;;;;;;15.05;3.30;;;;;;;;;;4998993;28;20020;-87
2023/12/16 04:21:55;;;;;;;11.43;3.27;;;;;;;;;;5011011;28;20037;-87
2023/12/16 04:24:20;;;;;;;12.80;3.30;;;;;;;;;;5013042;28;20028;-87
2023/12/16 04:26:46;;;;;;;14.77;3.20;;;;;;;;;;5012458;28;20159;-87
2023/12/16 04:29:11;;;;;;;16.93;3.40;;;;;;;;;;5011593;28;20033;-86
2023/12/16 04:31:37;;;;;;;10.27;3.40;;;;;;;;;;5010268;28;20045;-86
2023/12/16 04:34:02;;;;;;;15.68;3.28;;;;;;;;;;5013043;28;20429;-86
2023/12/16 04:36:27;;;;;;;12.70;3.63;;;;;;;;;;5009705;28;20021;-86
2023/12/16 04:38:52;;;;;;;14.63;3.40;;;;;;;;;;4993046;28;20037;-86
2023/12/16 04:41:18;;;;;;;15.20;3.17;;;;;;;;;;4992600;28;20092;-86
2023/12/16 04:43:43;;;;;;;14.03;3.10;;;;;;;;;;4996595;28;20029;-87
2023/12/16 04:46:08;;;;;;;14.33;3.37;;;;;;;;;;4993085;28;20022;-86
2023/12/16 04:48:34;;;;;;;15.03;3.13;;;;;;;;;;4984124;28;20018;-87
2023/12/16 04:51:06;;;;;;;14.03;3.00;;;;;;;;;;4992139;28;20037;-87
2023/12/16 04:53:34;;;;;;;16.73;3.10;;;;;;;;;;4994926;28;20018;-91
2023/12/16 04:56:00;;;;;;;15.02;3.50;;;;;;;;;;5009192;28;20026;-90
2023/12/16 04:58:28;;;;;;;17.87;3.20;;;;;;;;;;5011926;28;20025;-92
2023/12/16 05:00:54;;;;;;;19.65;3.47;;;;;;;;;;4998364;28;20567;-92
2023/12/16 05:03:19;;;;;;;10.68;3.08;;;;;;;;;;4999407;28;20053;-92
2023/12/16 05:05:45;;;;;;;15.10;3.57;;;;;;;;;;5007298;28;20022;-92
2023/12/16 05:08:11;;;;;;;18.47;3.97;;;;;;;;;;4986543;28;20038;-93
2023/12/16 05:10:36;;;;;;;13.07;3.30;;;;;;;;;;4999317;28;20037;-91
2023/12/16 05:13:01;;;;;;;16.00;3.10;;;;;;;;;;5017563;28;20052;-94
2023/12/16 05:15:27;;;;;;;10.83;3.00;;;;;;;;;;4996024;28;20094;-89
2023/12/16 05:17:52;;;;;;;18.83;3.53;;;;;;;;;;4996096;28;20018;-90
2023/12/16 05:20:17;;;;;;;11.23;3.80;;;;;;;;;;5010590;28;20022;-88
2023/12/16 05:22:42;;;;;;;13.30;3.30;;;;;;;;;;5005419;28;20507;-89
2023/12/16 05:25:08;;;;;;;18.83;3.53;;;;;;;;;;5015772;28;20525;-92
2023/12/16 05:27:33;;;;;;;17.73;3.20;;;;;;;;;;4985216;28;20022;-93
2023/12/16 05:30:00;;;;;;;15.23;2.95;;;;;;;;;;4999580;28;20024;-92
2023/12/16 05:32:26;;;;;;;19.85;3.50;;;;;;;;;;5000062;28;20026;-91
2023/12/16 05:34:51;;;;;;;12.80;3.23;;;;;;;;;;5006693;28;20035;-90
2023/12/16 05:37:17;;;;;;;15.17;3.07;;;;;;;;;;4999166;28;20273;-93
2023/12/16 05:39:42;;;;;;;17.60;3.27;;;;;;;;;;5016341;28;20021;-92
2023/12/16 05:42:07;;;;;;;14.90;3.33;;;;;;;;;;5014886;28;20018;-91
2023/12/16 05:44:32;;;;;;;23.27;3.70;;;;;;;;;;4992485;28;20040;-91
2023/12/16 05:46:58;;;;;;;20.40;4.10;;;;;;;;;;5009907;28;20056;-92
2023/12/16 05:49:23;;;;;;;14.57;3.23;;;;;;;;;;5014994;28;20022;-92
2023/12/16 05:51:48;;;;;;;13.93;3.22;;;;;;;;;;5013738;28;20026;-93
2023/12/16 05:54:13;;;;;;;15.40;3.00;;;;;;;;;;5015280;28;20022;-92
2023/12/16 05:56:45;;;;;;;17.60;3.07;;;;;;;;;;5017211;28;20025;-93
2023/12/16 05:59:10;;;;;;;15.80;3.35;;;;;;;;;;5020180;28;20704;-93
2023/12/16 06:01:35;;;;;;;11.40;2.57;;;;;;;;;;5022337;28;20014;-89
2023/12/16 06:04:00;;;;;;;13.00;3.67;;;;;;;;;;5001775;28;20030;-91
2023/12/16 06:06:25;;;;;;;20.47;3.40;;;;;;;;;;5012732;28;20025;-89
2023/12/16 06:08:53;;;;;;;18.20;3.67;;;;;;;;;;5006887;28;20026;-88
2023/12/16 06:11:18;;;;;;;16.13;3.20;;;;;;;;;;4992680;28;20057;-87
2023/12/16 06:13:43;;;;;;;14.07;3.10;;;;;;;;;;4997286;28;20470;-88
2023/12/16 06:16:09;;;;;;;17.10;4.20;;;;;;;;;;4996478;28;20028;-87
2023/12/16 06:18:34;;;;;;;17.47;3.67;;;;;;;;;;5000393;28;20033;-87
2023/12/16 06:20:59;;;;;;;12.43;3.37;;;;;;;;;;5010263;28;20405;-86
2023/12/16 06:23:26;;;;;;;19.33;3.57;;;;;;;;;;5010854;28;20018;-87
2023/12/16 06:25:51;;;;;;;18.48;3.67;;;;;;;;;;5006346;28;20034;-91
2023/12/16 06:28:16;;;;;;;16.20;3.63;;;;;;;;;;5005739;28;20098;-88
2023/12/16 06:30:42;;;;;;;14.20;3.07;;;;;;;;;;4993677;28;20025;-88
2023/12/16 06:33:08;;;;;;;15.43;4.00;;;;;;;;;;4991044;28;20466;-86
2023/12/16 06:35:33;;;;;;;14.17;3.83;;;;;;;;;;4998011;28;20030;-86
2023/12/16 06:37:58;;;;;;;15.13;3.73;;;;;;;;;;4990599;28;20394;-86
2023/12/16 06:40:23;;;;;;;15.20;3.60;;;;;;;;;;4990887;28;20069;-87
2023/12/16 06:42:49;;;;;;;20.63;4.60;;;;;;;;;;5000311;28;20052;-87
2023/12/16 06:45:14;;;;;;;18.17;3.10;;;;;;;;;;5007876;28;20026;-87
2023/12/16 06:47:40;;;;;;;14.27;3.40;;;;;;;;;;5014031;28;20121;-88
2023/12/16 06:50:06;;;;;;;14.47;3.87;;;;;;;;;;4994885;28;20060;-87
2023/12/16 06:52:31;;;;;;;18.00;3.53;;;;;;;;;;4997076;28;20321;-88
2023/12/16 06:54:56;;;;;;;14.83;3.17;;;;;;;;;;4990404;28;20034;-87
2023/12/16 06:57:21;;;;;;;15.70;3.10;;;;;;;;;;4990091;28;20022;-87
2023/12/16 06:59:47;;;;;;;13.27;2.93;;;;;;;;;;4991120;28;20116;-87
2023/12/16 07:02:12;;;;;;;12.73;3.80;;;;;;;;;;4991226;28;20105;-87
2023/12/16 07:04:37;;;;;;;14.20;3.07;;;;;;;;;;4994404;28;20026;-86
2023/12/16 07:07:02;;;;;;;20.90;3.60;;;;;;;;;;5007577;28;20030;-86
2023/12/16 07:09:28;;;;;;;17.30;2.97;;;;;;;;;;5007599;28;20033;-87
2023/12/16 07:11:53;;;;;;;21.37;3.17;;;;;;;;;;4999365;28;20312;-87
2023/12/16 07:14:19;;;;;;;14.97;3.27;;;;;;;;;;5011248;28;20014;-87
2023/12/16 07:16:44;;;;;;;13.10;3.50;;;;;;;;;;4996033;28;20037;-88
2023/12/16 07:19:09;;;;;;;14.43;2.73;;;;;;;;;;4992522;28;20022;-89
2023/12/16 07:21:35;;;;;;;15.90;4.07;;;;;;;;;;5007613;28;20026;-87
2023/12/16 07:24:00;;;;;;;23.47;3.30;;;;;;;;;;5011655;28;20450;-88
2023/12/16 07:26:25;;;;;;;14.00;3.50;;;;;;;;;;5009050;28;20053;-88
2023/12/16 07:28:50;;;;;;;12.57;2.83;;;;;;;;;;4986062;28;20014;-89
2023/12/16 07:31:15;;;;;;;19.17;3.80;;;;;;;;;;5015141;28;20199;-89
2023/12/16 07:33:41;;;;;;;13.77;2.93;;;;;;;;;;5017806;28;20082;-89
2023/12/16 07:36:06;;;;;;;19.07;3.37;;;;;;;;;;5003311;28;20507;-89
2023/12/16 07:38:31;;;;;;;13.57;3.10;;;;;;;;;;5018342;28;20037;-93
2023/12/16 07:40:56;;;;;;;12.03;3.00;;;;;;;;;;5027459;28;20046;-92
2023/12/16 07:43:22;;;;;;;20.85;3.30;;;;;;;;;;5027384;28;20022;-90
2023/12/16 07:45:47;;;;;;;14.77;4.63;;;;;;;;;;5032843;28;20014;-92
2023/12/16 07:48:14;;;;;;;17.80;3.53;;;;;;;;;;5025932;28;20018;-91
2023/12/16 07:50:41;;;;;;;19.30;3.53;;;;;;;;;;5031622;28;20037;-91
2023/12/16 07:53:13;;;;;;;17.88;3.03;;;;;;;;;;5026633;28;20026;-92
2023/12/16 07:55:43;;;;;;;15.13;3.10;;;;;;;;;;5008668;28;20020;-91
2023/12/16 07:58:08;;;;;;;17.50;3.20;;;;;;;;;;5028300;28;20285;-93
2023/12/16 08:00:33;;;;;;;15.63;2.60;;;;;;;;;;5023183;28;20025;-95
2023/12/16 08:02:58;;;;;;;14.60;3.07;;;;;;;;;;5019980;28;20285;-92
2023/12/16 08:05:24;;;;;;;13.27;2.33;;;;;;;;;;5029209;28;20028;-90
2023/12/16 08:07:50;;;;;;;20.10;3.07;;;;;;;;;;5017267;28;20037;-91
2023/12/16 08:10:15;;;;;;;15.60;3.23;;;;;;;;;;5015940;28;20316;-93
2023/12/16 08:12:49;;;;;;;15.03;2.80;;;;;;;;;;5016358;28;20039;-94
2023/12/16 08:15:15;;;;;;;14.40;3.25;;;;;;;;;;5003458;28;20053;-93
2023/12/16 08:17:40;;;;;;;12.30;2.87;;;;;;;;;;4995587;28;20066;-94
2023/12/16 08:23:21;;;;;;;14.40;2.75;;;;;;;;;;4976613;28;20034;-94
2023/12/16 08:25:59;;;;;;;16.42;2.80;;;;;;;;;;5027803;28;20022;-92
2023/12/16 08:28:24;;;;;;;12.98;2.50;;;;;;;;;;5016734;28;20026;-91
2023/12/16 08:30:50;;;;;;;16.63;3.00;;;;;;;;;;5013821;28;20049;-95
2023/12/16 08:33:16;;;;;;;22.02;2.85;;;;;;;;;;5034060;28;20017;-92
2023/12/16 08:35:44;;;;;;;21.60;4.37;;;;;;;;;;5011370;28;20061;-92
2023/12/16 08:38:10;;;;;;;20.00;5.43;;;;;;;;;;5018726;28;20030;-89
2023/12/16 08:40:35;;;;;;;12.33;2.63;;;;;;;;;;5020349;28;20276;-90
2023/12/16 08:43:00;;;;;;;19.83;2.80;;;;;;;;;;5027011;28;21264;-90
2023/12/16 08:45:25;;;;;;;13.50;3.03;;;;;;;;;;5028744;28;20018;-92
2023/12/16 08:47:50;;;;;;;19.10;2.83;;;;;;;;;;5015018;28;20077;-92
2023/12/16 08:50:16;;;;;;;14.97;2.60;;;;;;;;;;5011038;28;20023;-92
2023/12/16 08:52:42;;;;;;;10.90;2.40;;;;;;;;;;5006179;28;20054;-94
2023/12/16 08:55:07;;;;;;;11.68;2.58;;;;;;;;;;5006691;28;20011;-92
2023/12/16 08:57:32;;;;;;;16.83;2.63;;;;;;;;;;5005407;28;20024;-93
2023/12/16 08:59:58;;;;;;;16.37;3.10;;;;;;;;;;5016757;28;20017;-93
2023/12/16 09:02:23;;;;;;;16.83;2.60;;;;;;;;;;4999712;28;20470;-93
2023/12/16 09:04:48;;;;;;;12.43;2.30;;;;;;;;;;5017365;28;20418;-92
2023/12/16 09:07:14;;;;;;;16.83;2.93;;;;;;;;;;5020268;28;20022;-93
2023/12/16 09:09:40;;;;;;;13.73;2.97;;;;;;;;;;5016296;28;20026;-93
2023/12/16 09:12:06;;;;;;;15.65;2.53;;;;;;;;;;5016912;28;20029;-94
2023/12/16 09:14:32;;;;;;;12.87;2.37;;;;;;;;;;4988724;28;20058;-93
2023/12/16 09:16:57;;;;;;;18.15;2.85;;;;;;;;;;4996825;28;20030;-93
2023/12/16 09:19:23;;;;;;;16.77;3.07;;;;;;;;;;4997382;28;20378;-94
2023/12/16 09:21:49;;;;;;;14.37;2.77;;;;;;;;;;4996265;28;20015;-93
2023/12/16 09:24:14;;;;;;;13.80;2.57;;;;;;;;;;4995420;28;20356;-94
2023/12/16 09:26:39;;;;;;;15.90;3.03;;;;;;;;;;4997420;28;20054;-93
2023/12/16 09:29:06;;;;;;;18.13;3.15;;;;;;;;;;4997907;28;20029;-94
2023/12/16 09:31:31;;;;;;;17.05;3.10;;;;;;;;;;5001220;28;20065;-93
2023/12/16 09:33:57;;;;;;;15.07;3.63;;;;;;;;;;5001322;28;20018;-94
2023/12/16 09:36:26;;;;;;;15.53;3.10;;;;;;;;;;4998108;28;20015;-93
2023/12/16 09:38:52;;;;;;;13.70;3.08;;;;;;;;;;4998705;28;20018;-93
2023/12/16 09:41:23;;;;;;;19.00;3.33;;;;;;;;;;4997418;28;20022;-94
2023/12/16 09:43:50;;;;;;;14.90;3.47;;;;;;;;;;4997725;28;20269;-93
2023/12/16 09:46:15;;;;;;;14.05;2.97;;;;;;;;;;4997715;28;20026;-94
2023/12/16 09:48:42;;;;;;;14.10;3.23;;;;;;;;;;5005147;28;20029;-94
2023/12/16 09:51:09;;;;;;;10.90;2.80;;;;;;;;;;5003358;28;20029;-95
2023/12/16 09:53:34;;;;;;;18.45;3.33;;;;;;;;;;5017684;28;20073;-94
2023/12/16 09:55:59;;;;;;;13.57;2.80;;;;;;;;;;5005754;28;20034;-93
2023/12/16 09:58:25;;;;;;;15.03;3.30;;;;;;;;;;5009529;28;20022;-95
2023/12/16 10:00:50;;;;;;;17.27;3.10;;;;;;;;;;5010395;28;20026;-93
2023/12/16 10:03:18;;;;;;;13.27;3.10;;;;;;;;;;5016358;28;20026;-94
2023/12/16 10:05:44;;;;;;;16.70;3.23;;;;;;;;;;5027929;28;20034;-94
2023/12/16 10:08:09;;;;;;;18.83;3.67;;;;;;;;;;5030513;28;20275;-92
2023/12/16 10:10:35;;;;;;;17.17;3.53;;;;;;;;;;5032625;28;20053;-94
2023/12/16 10:13:04;;;;;;;16.75;3.92;;;;;;;;;;5016728;28;20053;-94
2023/12/16 10:15:33;;;;;;;15.50;3.67;;;;;;;;;;5033983;28;20044;-93
2023/12/16 10:18:02;;;;;;;15.73;3.47;;;;;;;;;;5035973;28;20018;-93
2023/12/16 10:20:28;;;;;;;15.15;3.85;;;;;;;;;;5033914;28;20033;-93
2023/12/16 10:22:53;;;;;;;14.40;3.72;;;;;;;;;;5035975;28;20066;-93
2023/12/16 10:25:18;;;;;;;16.60;3.53;;;;;;;;;;5036941;28;20009;-93
2023/12/16 10:27:44;;;;;;;15.77;4.10;;;;;;;;;;5035883;28;20034;-93
2023/12/16 10:30:09;;;;;;;15.93;3.90;;;;;;;;;;5035981;28;20014;-93
2023/12/16 10:32:37;;;;;;;19.63;4.10;;;;;;;;;;5037061;28;20041;-92
2023/12/16 10:35:05;;;;;;;16.00;4.13;;;;;;;;;;5033168;28;20029;-94
2023/12/16 10:37:30;;;;;;;18.38;3.97;;;;;;;;;;5021100;28;20025;-94
2023/12/16 10:39:55;;;;;;;14.00;4.20;;;;;;;;;;5016022;28;20006;-92
2023/12/16 10:42:20;;;;;;;18.57;4.30;;;;;;;;;;5016517;28;20030;-93
2023/12/16 10:44:49;;;;;;;13.63;4.10;;;;;;;;;;5015652;28;20014;-94
2023/12/16 10:47:16;;;;;;;18.80;3.90;;;;;;;;;;5016356;28;20013;-92
2023/12/16 10:49:44;;;;;;;16.23;3.83;;;;;;;;;;5015502;28;20014;-93
2023/12/16 10:52:13;;;;;;;17.30;4.85;;;;;;;;;;5025713;28;20025;-93
2023/12/16 10:54:40;;;;;;;18.02;4.47;;;;;;;;;;5023031;28;20109;-93
2023/12/16 11:08:51;;;;;;;21.23;4.45;;;;;;;;;;4974802;28;20163;-94
2023/12/16 11:14:20;;;;;;;18.83;4.27;;;;;;;;;;5014417;28;20036;-92
2023/12/16 11:17:05;;;;;;;16.03;4.10;;;;;;;;;;5008868;28;20273;-91
2023/12/16 11:22:09;;;;;;;17.60;4.68;;;;;;;;;;5424043;23;20381;-96
2023/12/16 11:24:54;;;;;;;21.77;4.25;;;;;;;;;;5054136;28;20031;-93
2023/12/16 11:27:20;;;;;;;18.40;4.15;;;;;;;;;;5037783;28;20101;-95
2023/12/16 11:29:48;;;;;;;14.90;4.70;;;;;;;;;;5054466;28;20009;-94
2023/12/16 11:32:21;;;;;;;18.03;4.53;;;;;;;;;;5053159;28;20315;-94
2023/12/16 11:34:49;;;;;;;16.00;4.40;;;;;;;;;;5051484;28;20024;-93
2023/12/16 11:37:46;;;;;;;17.35;4.72;;;;;;;;;;5052617;28;20013;-94
2023/12/16 11:43:03;;;;;;;;;;;;;;;;;;;;;
2023/12/16 11:46:13;;;;;;;18.93;4.50;;;;;;;;;;5000367;28;20093;-93
2023/12/16 11:51:48;;;;;;;19.75;4.95;;;;;;;;;;5017016;28;20042;-93
2023/12/16 11:54:22;;;;;;;23.98;5.15;;;;;;;;;;5018544;28;20026;-94
2023/12/16 12:00:00;;;;;;;15.45;4.45;;;;;;;;;;4946915;29;20503;-95
2023/12/16 12:02:59;;;;;;;24.77;6.13;;;;;;;;;;4944495;29;20043;-93
2023/12/16 12:05:25;;;;;;;21.90;5.23;;;;;;;;;;5001169;28;20278;-93
2023/12/16 12:07:51;;;;;;;21.05;4.93;;;;;;;;;;5010893;28;20156;-93
2023/12/16 12:10:20;;;;;;;28.63;5.72;;;;;;;;;;5016294;28;20025;-93
2023/12/16 12:12:55;;;;;;;22.13;5.37;;;;;;;;;;5043984;28;20029;-93
2023/12/16 12:15:21;;;;;;;17.08;5.47;;;;;;;;;;5069377;22;20117;-93
2023/12/16 12:17:53;;;;;;;17.17;5.27;;;;;;;;;;5023723;28;20042;-94
2023/12/16 12:20:52;;;;;;;28.05;6.38;;;;;;;;;;5022341;28;20112;-94
2023/12/16 12:23:32;;;;;;;18.48;4.95;;;;;;;;;;5021224;28;20033;-93
2023/12/16 12:26:04;;;;;;;20.50;5.68;;;;;;;;;;5020428;28;20040;-95
2023/12/16 12:28:29;;;;;;;25.10;5.63;;;;;;;;;;5021390;28;20018;-94
2023/12/16 12:34:05;;;;;;;17.47;5.10;;;;;;;;;;5037513;28;20036;-93
2023/12/16 12:36:42;;;;;;;18.97;5.20;;;;;;;;;;5039235;28;20308;-92
2023/12/16 12:54:02;;;;;;;23.60;5.83;;;;;;;;;;5057971;28;20386;-95
2023/12/16 12:57:11;;;;;;;24.02;7.13;;;;;;;;;;5057693;28;20022;-92
2023/12/16 13:00:08;;;;;;;23.35;5.47;;;;;;;;;;5055741;28;20061;-90
2023/12/16 13:02:36;;;;;;;25.60;6.03;;;;;;;;;;5056393;28;20145;-93
2023/12/16 13:05:06;;;;;;;21.30;6.55;;;;;;;;;;5056096;28;20033;-94
2023/12/16 13:07:33;;;;;;;17.73;6.30;;;;;;;;;;5042481;28;20079;-94
2023/12/16 13:10:00;;;;;;;18.77;5.53;;;;;;;;;;5049255;28;20096;-94
2023/12/16 13:12:38;;;;;;;28.97;6.47;;;;;;;;;;5058687;28;20016;-92
2023/12/16 13:15:03;;;;;;;20.43;6.07;;;;;;;;;;5059066;28;20331;-93
2023/12/16 13:17:32;;;;;;;18.48;6.40;;;;;;;;;;5050726;28;20052;-94
2023/12/16 13:19:57;;;;;;;19.93;6.53;;;;;;;;;;5045839;28;20025;-93
2023/12/16 13:22:22;;;;;;;22.45;6.25;;;;;;;;;;5043626;28;20382;-94
2023/12/16 13:24:53;;;;;;;21.80;5.90;;;;;;;;;;5042826;28;20048;-94
2023/12/16 13:27:18;;;;;;;27.80;6.10;;;;;;;;;;5039928;28;20041;-94
2023/12/16 13:30:02;;;;;;;20.00;6.37;;;;;;;;;;5040620;28;20013;-93
2023/12/16 13:32:28;;;;;;;21.20;6.28;;;;;;;;;;5022414;28;20025;-93
2023/12/16 13:34:53;;;;;;;17.80;5.90;;;;;;;;;;5042547;28;20060;-94
2023/12/16 13:37:18;;;;;;;20.73;6.00;;;;;;;;;;5043625;28;20029;-94
2023/12/16 13:39:50;;;;;;;19.08;6.75;;;;;;;;;;5041202;28;20024;-94
2023/12/16 13:42:17;;;;;;;23.40;6.73;;;;;;;;;;5047852;28;20088;-93
2023/12/16 13:44:42;;;;;;;19.70;6.25;;;;;;;;;;5046265;28;20020;-94
2023/12/16 13:47:08;;;;;;;22.27;6.17;;;;;;;;;;5051817;28;20014;-94
2023/12/16 13:49:33;;;;;;;21.08;6.35;;;;;;;;;;5044406;28;20029;-94
2023/12/16 13:52:00;;;;;;;19.30;6.32;;;;;;;;;;5037591;28;20033;-92
2023/12/16 13:54:25;;;;;;;17.00;6.10;;;;;;;;;;5038026;28;20076;-94
2023/12/16 13:56:51;;;;;;;17.80;5.80;;;;;;;;;;5036392;28;20484;-93
2023/12/16 13:59:25;;;;;;;20.37;6.83;;;;;;;;;;5038112;28;20764;-93
2023/12/16 14:01:50;;;;;;;17.87;5.53;;;;;;;;;;5038688;28;20151;-94
2023/12/16 14:04:16;;;;;;;18.40;5.70;;;;;;;;;;5040426;28;20304;-93
2023/12/16 14:06:47;;;;;;;19.73;6.50;;;;;;;;;;5038746;28;20111;-94
2023/12/16 14:09:19;;;;;;;23.13;6.03;;;;;;;;;;5023385;28;20049;-95
2023/12/16 14:11:44;;;;;;;16.97;5.50;;;;;;;;;;5040142;28;20037;-94
2023/12/16 14:14:12;;;;;;;25.20;6.50;;;;;;;;;;5039220;28;20264;-94
2023/12/16 14:16:37;;;;;;;20.55;6.65;;;;;;;;;;5038608;28;20106;-94
2023/12/16 14:19:02;;;;;;;24.30;6.27;;;;;;;;;;5018897;28;20010;-94
2023/12/16 14:21:57;;;;;;;19.93;6.30;;;;;;;;;;5017794;28;20093;-94
2023/12/16 14:24:23;;;;;;;20.00;6.38;;;;;;;;;;4989038;28;20486;-95
2023/12/16 14:26:48;;;;;;;20.03;6.60;;;;;;;;;;5016269;28;20018;-94
2023/12/16 14:29:19;;;;;;;20.43;7.00;;;;;;;;;;5080057;22;20021;-94
2023/12/16 14:31:48;;;;;;;18.13;6.65;;;;;;;;;;5237624;22;20140;-94
2023/12/16 14:34:26;;;;;;;19.23;6.68;;;;;;;;;;5016319;28;20589;-94
2023/12/16 14:36:52;;;;;;;20.90;6.93;;;;;;;;;;5020423;28;20040;-94
2023/12/16 14:39:18;;;;;;;23.45;7.82;;;;;;;;;;5015185;28;20104;-94
2023/12/16 14:41:44;;;;;;;27.23;7.33;;;;;;;;;;5015480;28;20014;-94
2023/12/16 14:44:09;;;;;;;19.55;6.50;;;;;;;;;;5016088;28;20445;-94
2023/12/16 14:46:34;;;;;;;20.13;7.83;;;;;;;;;;5016074;28;20465;-95
2023/12/16 14:49:06;;;;;;;21.20;7.30;;;;;;;;;;4983694;28;20648;-94
2023/12/16 14:51:38;;;;;;;18.60;7.95;;;;;;;;;;4998301;28;20072;-94
2023/12/16 14:54:17;;;;;;;25.80;7.00;;;;;;;;;;4979702;28;20022;-94
2023/12/16 14:56:51;;;;;;;23.67;8.10;;;;;;;;;;4997098;28;20069;-94
2023/12/16 14:59:19;;;;;;;28.27;8.57;;;;;;;;;;4996535;28;20285;-94
2023/12/16 15:01:44;;;;;;;22.13;7.88;;;;;;;;;;5017787;28;20021;-95
2023/12/16 15:25:19;;;;;;;27.63;9.02;;;;;;;;;;6001794;23;20010;-93
2023/12/16 15:28:08;;;;;;;19.95;8.68;;;;;;;;;;5002607;28;20262;-94
2023/12/16 15:30:51;;;;;;;20.93;9.03;;;;;;;;;;5117264;23;20049;-96
2023/12/16 15:36:50;;;;;;;32.30;9.65;;;;;;;;;;5023384;28;20064;-95
2023/12/16 15:39:15;;;;;;;23.10;8.68;;;;;;;;;;5000916;28;20030;-90
2023/12/16 15:41:43;;;;;;;31.87;9.77;;;;;;;;;;4988060;28;20026;-91